createdAt,value
2022-08-21T00:00:44.182Z,15.68
2022-08-21T00:03:14.750Z,15.72
2022-08-21T00:05:50.335Z,15.69
2022-08-21T00:08:20.296Z,15.62
2022-08-21T00:10:50.749Z,15.59
2022-08-21T00:13:21.758Z,15.58
2022-08-21T00:15:51.991Z,15.64
2022-08-21T00:18:22.031Z,15.51
2022-08-21T00:20:53.636Z,15.38
2022-08-21T00:23:22.900Z,15.54
2022-08-21T00:25:52.000Z,15.35
2022-08-21T00:28:21.437Z,15.32
2022-08-21T00:30:50.616Z,15.29
2022-08-21T00:33:19.763Z,15.30
2022-08-21T00:35:49.201Z,15.32
2022-08-21T00:38:21.300Z,15.30
2022-08-21T00:40:53.662Z,15.31
2022-08-21T00:43:26.657Z,15.26
2022-08-21T00:45:56.407Z,15.17
2022-08-21T00:48:28.845Z,15.16
2022-08-21T00:51:02.605Z,15.10
2022-08-21T00:53:34.661Z,15.06
2022-08-21T00:56:06.780Z,15.03
2022-08-21T00:58:37.910Z,15.05
2022-08-21T01:01:09.852Z,15.03
2022-08-21T01:03:39.856Z,14.89
2022-08-21T01:06:15.503Z,14.91
2022-08-21T01:08:47.810Z,14.95
2022-08-21T01:11:18.187Z,14.95
2022-08-21T01:13:48.972Z,14.95
2022-08-21T01:16:24.056Z,15.01
2022-08-21T01:18:54.120Z,15.11
2022-08-21T01:21:28.387Z,15.08
2022-08-21T01:23:59.587Z,15.12
2022-08-21T01:26:33.932Z,15.05
2022-08-21T01:29:07.804Z,14.96
2022-08-21T01:31:37.717Z,14.83
2022-08-21T01:34:07.616Z,14.82
2022-08-21T01:36:39.462Z,14.75
2022-08-21T01:39:09.840Z,14.83
2022-08-21T01:41:38.985Z,14.74
2022-08-21T01:44:08.436Z,14.55
2022-08-21T01:46:38.049Z,14.62
2022-08-21T01:49:08.145Z,14.47
2022-08-21T01:51:39.216Z,14.57
2022-08-21T01:54:08.505Z,14.51
2022-08-21T01:56:40.703Z,14.54
2022-08-21T01:59:10.344Z,14.50
2022-08-21T02:01:40.065Z,14.53
2022-08-21T02:04:10.638Z,14.46
2022-08-21T02:06:41.849Z,14.42
2022-08-21T02:09:14.577Z,14.40
2022-08-21T02:11:45.136Z,14.40
2022-08-21T02:14:32.392Z,14.26
2022-08-21T02:17:05.311Z,14.48
2022-08-21T02:19:40.709Z,14.39
2022-08-21T02:22:13.671Z,14.46
2022-08-21T02:24:53.851Z,14.49
2022-08-21T02:27:26.786Z,14.50
2022-08-21T02:29:56.510Z,14.53
2022-08-21T02:32:26.699Z,14.50
2022-08-21T02:34:56.210Z,14.53
2022-08-21T02:37:27.589Z,14.58
2022-08-21T02:39:58.647Z,14.54
2022-08-21T02:42:28.238Z,14.64
2022-08-21T02:44:58.057Z,14.69
2022-08-21T02:47:27.182Z,14.76
2022-08-21T02:49:56.392Z,14.72
2022-08-21T02:52:27.743Z,14.78
2022-08-21T02:54:57.149Z,14.90
2022-08-21T02:57:26.277Z,14.90
2022-08-21T02:59:55.864Z,15.00
2022-08-21T03:02:26.575Z,15.03
2022-08-21T03:04:56.446Z,15.12
2022-08-21T03:07:27.724Z,15.20
2022-08-21T03:09:56.893Z,15.22
2022-08-21T03:12:29.669Z,15.28
2022-08-21T03:14:59.407Z,15.36
2022-08-21T03:17:29.735Z,15.38
2022-08-21T03:19:59.969Z,15.51
2022-08-21T03:22:32.686Z,15.62
2022-08-21T03:25:06.381Z,15.68
2022-08-21T03:27:37.000Z,15.73
2022-08-21T03:30:10.860Z,15.78
2022-08-21T03:32:42.215Z,15.75
2022-08-21T03:35:12.519Z,15.89
2022-08-21T03:37:44.247Z,16.00
2022-08-21T03:40:15.325Z,15.88
2022-08-21T03:42:45.834Z,16.21
2022-08-21T03:45:15.299Z,16.32
2022-08-21T03:47:54.035Z,16.29
2022-08-21T03:50:23.454Z,16.42
2022-08-21T03:52:54.625Z,16.47
2022-08-21T03:55:24.089Z,16.53
2022-08-21T03:57:53.867Z,16.57
2022-08-21T04:00:23.965Z,16.63
2022-08-21T04:02:53.571Z,16.65
2022-08-21T04:05:30.690Z,16.73
2022-08-21T04:08:08.547Z,16.84
2022-08-21T04:10:40.343Z,16.94
2022-08-21T04:13:10.576Z,16.94
2022-08-21T04:15:39.739Z,17.08
2022-08-21T04:18:08.937Z,17.26
2022-08-21T04:20:38.167Z,17.32
2022-08-21T04:23:10.053Z,17.41
2022-08-21T04:25:39.345Z,17.51
2022-08-21T04:28:08.418Z,17.55
2022-08-21T04:30:38.259Z,17.60
2022-08-21T04:33:07.908Z,17.60
2022-08-21T04:35:37.090Z,17.70
2022-08-21T04:38:06.254Z,17.71
2022-08-21T04:40:37.417Z,17.69
2022-08-21T04:43:10.632Z,17.72
2022-08-21T04:45:42.792Z,17.78
2022-08-21T04:48:14.391Z,17.63
2022-08-21T04:50:46.048Z,17.94
2022-08-21T04:53:19.158Z,17.90
2022-08-21T04:55:51.749Z,17.98
2022-08-21T04:58:23.325Z,18.21
2022-08-21T05:00:56.797Z,18.33
2022-08-21T05:03:26.899Z,18.40
2022-08-21T05:05:55.972Z,18.45
2022-08-21T05:08:28.670Z,18.50
2022-08-21T05:11:00.743Z,18.55
2022-08-21T05:13:30.638Z,18.63
2022-08-21T05:15:59.837Z,18.74
2022-08-21T05:18:31.382Z,18.83
2022-08-21T05:21:01.041Z,18.94
2022-08-21T05:23:30.116Z,18.94
2022-08-21T05:26:01.649Z,18.96
2022-08-21T05:28:31.403Z,18.97
2022-08-21T05:31:00.505Z,19.03
2022-08-21T05:33:29.851Z,19.02
2022-08-21T05:36:00.752Z,19.09
2022-08-21T05:38:30.187Z,19.11
2022-08-21T05:41:01.352Z,19.12
2022-08-21T05:43:30.507Z,19.11
2022-08-21T05:45:59.617Z,19.15
2022-08-21T05:48:28.819Z,19.08
2022-08-21T05:50:58.022Z,19.24
2022-08-21T05:53:28.069Z,19.29
2022-08-21T05:55:57.176Z,19.36
2022-08-21T05:58:28.583Z,19.47
2022-08-21T06:00:59.240Z,19.52
2022-08-21T06:03:31.185Z,19.54
2022-08-21T06:06:01.350Z,19.60
2022-08-21T06:08:30.767Z,19.65
2022-08-21T06:11:02.136Z,19.73
2022-08-21T06:13:33.351Z,19.79
2022-08-21T06:16:09.309Z,19.85
2022-08-21T06:18:40.104Z,19.89
2022-08-21T06:21:11.927Z,19.88
2022-08-21T06:23:41.278Z,20.05
2022-08-21T06:26:12.564Z,20.10
2022-08-21T06:28:44.488Z,20.14
2022-08-21T06:31:16.409Z,20.20
2022-08-21T06:33:46.406Z,20.27
2022-08-21T06:36:16.107Z,20.35
2022-08-21T06:38:51.678Z,20.44
2022-08-21T06:41:23.809Z,20.52
2022-08-21T06:43:56.015Z,20.51
2022-08-21T06:46:25.723Z,20.67
2022-08-21T06:48:55.121Z,20.77
2022-08-21T06:51:26.212Z,20.88
2022-08-21T06:53:55.437Z,20.99
2022-08-21T06:56:24.698Z,21.12
2022-08-21T06:58:55.961Z,21.13
2022-08-21T07:01:28.184Z,21.18
2022-08-21T07:03:58.354Z,21.20
2022-08-21T07:06:27.609Z,21.33
2022-08-21T07:08:59.015Z,21.46
2022-08-21T07:11:28.822Z,21.49
2022-08-21T07:14:00.002Z,21.55
2022-08-21T07:16:29.423Z,21.59
2022-08-21T07:19:10.031Z,21.66
2022-08-21T07:21:40.474Z,21.61
2022-08-21T07:24:09.783Z,21.78
2022-08-21T07:26:39.326Z,21.85
2022-08-21T07:29:10.476Z,21.87
2022-08-21T07:31:39.798Z,21.92
2022-08-21T07:34:08.961Z,21.94
2022-08-21T07:36:38.209Z,21.93
2022-08-21T07:39:09.114Z,22.00
2022-08-21T07:41:38.170Z,21.98
2022-08-21T07:44:10.384Z,22.04
2022-08-21T07:46:43.933Z,22.15
2022-08-21T07:49:13.174Z,22.21
2022-08-21T07:51:42.554Z,22.28
2022-08-21T07:54:11.793Z,22.36
2022-08-21T07:56:46.470Z,22.44
2022-08-21T07:59:15.670Z,22.55
2022-08-21T08:01:46.873Z,22.67
2022-08-21T08:04:16.926Z,22.79
2022-08-21T08:06:46.343Z,22.84
2022-08-21T08:09:15.796Z,22.90
2022-08-21T08:11:46.182Z,22.97
2022-08-21T08:14:16.232Z,23.15
2022-08-21T08:16:47.266Z,23.24
2022-08-21T08:19:16.482Z,23.27
2022-08-21T08:21:45.689Z,23.47
2022-08-21T08:24:18.415Z,23.61
2022-08-21T08:26:53.914Z,23.61
2022-08-21T08:29:23.915Z,23.81
2022-08-21T08:31:55.178Z,23.86
2022-08-21T08:34:25.456Z,24.03
2022-08-21T08:36:54.993Z,23.95
2022-08-21T08:39:26.978Z,23.91
2022-08-21T08:42:32.850Z,24.00
2022-08-21T08:45:00.290Z,24.03
2022-08-21T08:47:34.441Z,24.17
2022-08-21T08:50:07.366Z,24.55
2022-08-21T08:52:39.702Z,24.89
2022-08-21T08:55:15.374Z,25.12
2022-08-21T08:57:50.301Z,25.25
2022-08-21T09:00:22.585Z,25.31
2022-08-21T09:02:57.637Z,25.29
2022-08-21T09:05:29.189Z,25.25
2022-08-21T09:08:09.385Z,25.46
2022-08-21T09:10:49.395Z,25.45
2022-08-21T09:13:26.727Z,25.44
2022-08-21T09:16:02.784Z,25.52
2022-08-21T09:18:46.186Z,25.64
2022-08-21T09:21:23.600Z,25.68
2022-08-21T09:24:02.997Z,25.67
2022-08-21T09:26:38.102Z,25.54
2022-08-21T09:29:09.733Z,25.74
2022-08-21T09:31:40.404Z,25.93
2022-08-21T09:34:14.325Z,26.23
2022-08-21T09:36:45.995Z,26.60
2022-08-21T09:39:25.798Z,26.92
2022-08-21T09:42:00.407Z,27.32
2022-08-21T09:44:33.005Z,27.50
2022-08-21T09:47:02.946Z,27.28
2022-08-21T09:49:37.088Z,27.16
2022-08-21T09:52:15.532Z,27.23
2022-08-21T09:54:49.068Z,27.38
2022-08-21T09:57:38.804Z,27.63
2022-08-21T10:00:18.127Z,27.70
2022-08-21T10:02:47.435Z,27.69
2022-08-21T10:05:28.811Z,27.44
2022-08-21T10:07:58.134Z,27.30
2022-08-21T10:10:31.230Z,27.23
2022-08-21T10:13:06.049Z,27.19
2022-08-21T10:15:50.111Z,27.28
2022-08-21T10:18:28.065Z,27.34
2022-08-21T10:21:08.142Z,27.40
2022-08-21T10:23:53.200Z,27.37
2022-08-21T10:26:36.557Z,27.26
2022-08-21T10:29:15.884Z,27.17
2022-08-21T10:31:55.132Z,26.92
2022-08-21T10:34:40.288Z,26.71
2022-08-21T10:37:24.096Z,26.66
2022-08-21T10:40:09.821Z,26.65
2022-08-21T10:42:49.914Z,26.64
2022-08-21T10:45:43.155Z,26.68
2022-08-21T10:48:23.784Z,26.93
2022-08-21T10:50:58.346Z,27.18
2022-08-21T10:53:51.325Z,27.45
2022-08-21T10:56:24.921Z,27.65
2022-08-21T10:59:07.527Z,27.71
2022-08-21T11:01:47.990Z,27.69
2022-08-21T11:04:23.509Z,27.50
2022-08-21T11:07:04.595Z,27.42
2022-08-21T11:09:43.965Z,27.50
2022-08-21T11:12:23.961Z,27.66
2022-08-21T11:14:59.631Z,27.37
2022-08-21T11:17:36.817Z,27.24
2022-08-21T11:20:14.405Z,27.09
2022-08-21T11:22:54.544Z,26.91
2022-08-21T11:25:37.176Z,26.91
2022-08-21T11:28:14.387Z,26.76
2022-08-21T11:30:59.008Z,26.86
2022-08-21T11:33:45.982Z,26.96
2022-08-21T11:36:23.089Z,26.91
2022-08-21T11:39:01.798Z,26.91
2022-08-21T11:41:40.127Z,26.92
2022-08-21T11:44:18.681Z,27.17
2022-08-21T11:46:57.098Z,27.27
2022-08-21T11:49:50.149Z,27.39
2022-08-21T11:52:25.315Z,27.15
2022-08-21T11:55:01.378Z,27.06
2022-08-21T11:57:37.525Z,26.94
2022-08-21T12:00:12.084Z,26.79
2022-08-21T12:02:48.818Z,26.69
2022-08-21T12:05:33.949Z,26.64
2022-08-21T12:08:07.233Z,26.44
2022-08-21T12:10:40.217Z,26.25
2022-08-21T12:13:15.506Z,26.11
2022-08-21T12:15:44.743Z,26.03
2022-08-21T12:18:26.097Z,25.98
2022-08-21T12:21:03.019Z,26.14
2022-08-21T12:23:36.128Z,25.88
2022-08-21T12:26:25.771Z,25.99
2022-08-21T12:29:16.793Z,26.20
2022-08-21T12:31:58.949Z,26.45
2022-08-21T12:34:35.360Z,26.67
2022-08-21T12:37:09.417Z,26.79
2022-08-21T12:39:45.814Z,26.96
2022-08-21T12:42:23.359Z,27.17
2022-08-21T12:44:59.135Z,27.33
2022-08-21T12:47:34.040Z,27.29
2022-08-21T13:07:48.937Z,27.55
2022-08-21T13:10:23.314Z,27.67
2022-08-21T13:12:53.732Z,27.70
2022-08-21T13:15:33.172Z,27.57
2022-08-21T13:18:04.642Z,27.55
2022-08-21T13:20:38.091Z,27.36
2022-08-21T13:23:22.843Z,27.18
2022-08-21T13:25:52.749Z,27.25
2022-08-21T13:28:21.974Z,27.32
2022-08-21T13:30:53.724Z,27.32
2022-08-21T13:33:36.454Z,27.31
2022-08-21T13:36:12.458Z,27.17
2022-08-21T13:38:45.314Z,27.01
2022-08-21T13:41:23.254Z,26.85
2022-08-21T13:44:06.678Z,26.66
2022-08-21T13:46:38.498Z,26.56
2022-08-21T13:49:09.236Z,26.44
2022-08-21T13:51:39.175Z,26.31
2022-08-21T13:54:25.300Z,26.32
2022-08-21T13:56:56.187Z,26.27
2022-08-21T13:59:31.025Z,26.24
2022-08-21T14:02:02.664Z,26.13
2022-08-21T14:04:38.761Z,26.18
2022-08-21T14:07:20.844Z,26.17
2022-08-21T14:09:52.292Z,26.11
2022-08-21T14:12:26.350Z,26.18
2022-08-21T14:14:58.063Z,26.02
2022-08-21T14:17:33.711Z,25.96
2022-08-21T14:20:04.131Z,25.87
2022-08-21T14:22:41.826Z,25.98
2022-08-21T14:25:16.621Z,25.96
2022-08-21T14:27:51.944Z,25.87
2022-08-21T14:30:23.793Z,25.99
2022-08-21T14:32:53.003Z,25.93
2022-08-21T14:35:23.817Z,25.90
2022-08-21T14:37:54.943Z,25.82
2022-08-21T14:40:27.968Z,25.86
2022-08-21T14:42:58.781Z,25.88
2022-08-21T14:45:30.881Z,25.85
2022-08-21T14:48:01.454Z,25.91
2022-08-21T14:50:30.610Z,25.91
2022-08-21T14:53:00.962Z,25.89
2022-08-21T14:55:53.135Z,25.85
2022-08-21T14:58:23.516Z,25.78
2022-08-21T15:00:53.169Z,25.78
2022-08-21T15:03:24.365Z,25.74
2022-08-21T15:05:54.085Z,25.69
2022-08-21T15:08:23.458Z,25.64
2022-08-21T15:11:11.229Z,25.62
2022-08-21T15:13:42.372Z,25.51
2022-08-21T15:16:12.004Z,25.31
2022-08-21T15:18:42.502Z,25.37
2022-08-21T15:21:12.075Z,25.33
2022-08-21T15:23:43.910Z,25.25
2022-08-21T15:26:17.149Z,25.25
2022-08-21T15:28:46.626Z,25.11
2022-08-21T15:31:16.031Z,25.06
2022-08-21T15:33:45.584Z,25.00
2022-08-21T15:36:14.929Z,24.95
2022-08-21T15:38:44.457Z,24.85
2022-08-21T15:41:16.652Z,24.84
2022-08-21T15:43:49.308Z,24.68
2022-08-21T15:46:21.263Z,24.61
2022-08-21T15:48:52.846Z,24.53
2022-08-21T15:51:23.839Z,24.49
2022-08-21T15:53:52.981Z,24.46
2022-08-21T15:56:28.024Z,24.40
2022-08-21T15:59:05.899Z,24.33
2022-08-21T16:01:45.001Z,24.29
2022-08-21T16:04:26.098Z,24.17
2022-08-21T16:06:59.983Z,24.16
2022-08-21T16:09:37.447Z,24.00
2022-08-21T16:12:09.748Z,23.89
2022-08-21T16:14:39.638Z,23.71
2022-08-21T16:17:09.197Z,23.56
2022-08-21T16:19:40.295Z,23.44
2022-08-21T16:22:12.230Z,23.32
2022-08-21T16:24:41.996Z,23.09
2022-08-21T16:27:13.689Z,23.08
2022-08-21T16:29:44.753Z,22.98
2022-08-21T16:32:14.992Z,22.73
2022-08-21T16:34:47.734Z,22.65
2022-08-21T16:37:23.861Z,22.56
2022-08-21T16:39:53.891Z,22.46
2022-08-21T16:42:28.880Z,22.44
2022-08-21T16:44:59.087Z,22.43
2022-08-21T16:47:28.401Z,22.39
2022-08-21T16:49:58.113Z,22.42
2022-08-21T16:52:27.607Z,22.34
2022-08-21T16:54:57.139Z,22.32
2022-08-21T16:57:29.822Z,22.32
2022-08-21T16:59:59.187Z,22.25
2022-08-21T17:02:33.589Z,22.12
2022-08-21T17:05:03.162Z,22.03
2022-08-21T17:07:36.841Z,21.96
2022-08-21T17:10:09.691Z,21.91
2022-08-21T17:12:43.395Z,21.86
2022-08-21T17:15:21.471Z,21.90
2022-08-21T17:17:51.300Z,21.99
2022-08-21T17:20:21.590Z,22.05
2022-08-21T17:22:51.566Z,22.06
2022-08-21T17:25:21.093Z,22.10
2022-08-21T17:27:53.110Z,22.10
2022-08-21T17:30:23.050Z,22.00
2022-08-21T17:32:56.051Z,22.04
2022-08-21T17:35:25.342Z,22.02
2022-08-21T17:37:54.646Z,22.05
2022-08-21T17:40:24.359Z,22.09
2022-08-21T17:42:55.653Z,22.07
2022-08-21T17:45:26.086Z,21.94
2022-08-21T17:47:58.939Z,21.87
2022-08-21T17:50:28.466Z,21.84
2022-08-21T17:53:01.245Z,21.61
2022-08-21T17:55:31.371Z,21.79
2022-08-21T17:58:03.473Z,21.74
2022-08-21T18:00:33.913Z,21.76
2022-08-21T18:03:07.385Z,21.69
2022-08-21T18:05:37.106Z,21.62
2022-08-21T18:08:06.386Z,21.61
2022-08-21T18:10:35.920Z,21.66
2022-08-21T18:13:09.830Z,21.63
2022-08-21T18:15:39.285Z,21.69
2022-08-21T18:18:09.009Z,21.69
2022-08-21T18:20:38.714Z,21.63
2022-08-21T18:23:07.998Z,21.69
2022-08-21T18:25:37.792Z,21.68
2022-08-21T18:28:12.303Z,21.67
2022-08-21T18:30:44.181Z,21.71
2022-08-21T18:33:15.525Z,21.72
2022-08-21T18:35:45.148Z,21.69
2022-08-21T18:38:14.821Z,21.57
2022-08-21T18:40:51.498Z,21.65
2022-08-21T18:43:26.557Z,21.57
2022-08-21T18:46:00.223Z,21.48
2022-08-21T18:48:32.363Z,21.59
2022-08-21T18:51:02.468Z,21.55
2022-08-21T18:53:31.740Z,21.56
2022-08-21T18:56:04.888Z,21.59
2022-08-21T18:58:37.273Z,21.52
2022-08-21T19:01:06.796Z,21.61
2022-08-21T19:03:35.930Z,21.51
2022-08-21T19:06:05.628Z,21.47
2022-08-21T19:08:41.192Z,21.36
2022-08-21T19:14:03.229Z,21.45
2022-08-21T19:16:32.250Z,21.53
2022-08-21T19:19:02.418Z,21.46
2022-08-21T19:21:32.001Z,21.38
2022-08-21T19:24:01.197Z,21.27
2022-08-21T19:26:47.725Z,21.18
2022-08-21T19:29:21.843Z,21.10
2022-08-21T19:32:08.697Z,21.03
2022-08-21T19:34:40.650Z,21.08
2022-08-21T19:37:10.577Z,21.16
2022-08-21T19:39:44.848Z,21.06
2022-08-21T19:42:20.999Z,21.07
2022-08-21T19:44:57.399Z,20.99
2022-08-21T19:47:29.464Z,20.97
2022-08-21T19:52:51.713Z,21.02
2022-08-21T19:55:23.254Z,21.08
2022-08-21T19:57:53.564Z,21.03
2022-08-21T20:00:25.254Z,21.14
2022-08-21T20:02:55.137Z,21.18
2022-08-21T20:05:24.354Z,21.17
2022-08-21T20:07:53.687Z,21.10
2022-08-21T20:10:23.209Z,20.94
2022-08-21T20:12:52.735Z,20.98
2022-08-21T20:15:24.703Z,20.77
2022-08-21T20:17:54.001Z,20.84
2022-08-21T20:20:23.633Z,20.68
2022-08-21T20:22:53.073Z,20.74
2022-08-21T20:25:22.475Z,20.73
2022-08-21T20:27:52.273Z,20.65
2022-08-21T20:30:23.497Z,20.57
2022-08-21T20:32:55.262Z,20.47
2022-08-21T20:35:25.176Z,20.47
2022-08-21T20:37:58.819Z,20.49
2022-08-21T20:40:32.772Z,20.42
2022-08-21T20:43:03.241Z,20.31
2022-08-21T20:45:36.084Z,20.24
2022-08-21T20:48:11.253Z,20.13
2022-08-21T20:50:46.326Z,19.92
2022-08-21T20:53:21.698Z,19.92
2022-08-21T20:55:52.860Z,19.81
2022-08-21T20:58:31.425Z,19.71
2022-08-21T21:01:08.282Z,19.66
2022-08-21T21:03:43.298Z,19.66
2022-08-21T21:06:16.194Z,19.55
2022-08-21T21:08:50.249Z,19.52
2022-08-21T21:11:24.797Z,19.25
2022-08-21T21:13:58.388Z,19.44
2022-08-21T21:16:34.975Z,19.40
2022-08-21T21:19:11.917Z,19.29
2022-08-21T21:21:51.502Z,19.28
2022-08-21T21:24:27.568Z,19.23
2022-08-21T21:30:01.602Z,19.01
2022-08-21T21:32:35.616Z,18.91
2022-08-21T21:35:07.385Z,18.85
2022-08-21T21:37:44.073Z,18.86
2022-08-21T21:40:36.789Z,18.95
2022-08-21T21:43:17.300Z,19.01
2022-08-21T21:46:07.061Z,19.06
2022-08-21T21:48:57.852Z,19.11
2022-08-21T21:51:42.436Z,19.04
2022-08-21T21:54:26.425Z,19.03
2022-08-21T21:57:04.953Z,19.06
2022-08-21T21:59:51.263Z,19.10
2022-08-21T22:02:33.989Z,19.13
2022-08-21T22:05:09.066Z,19.14
2022-08-21T22:07:43.031Z,19.07
2022-08-21T22:10:30.773Z,19.09
2022-08-21T22:13:26.276Z,19.08
2022-08-21T22:15:56.546Z,19.12
2022-08-21T22:18:31.387Z,19.20
2022-08-21T22:21:06.958Z,19.19
2022-08-21T22:23:40.506Z,19.17
2022-08-21T22:26:16.609Z,19.19
2022-08-21T22:28:49.453Z,19.07
2022-08-21T22:31:23.118Z,19.08
2022-08-21T22:34:05.370Z,19.12
2022-08-21T22:36:40.774Z,19.17
2022-08-21T22:39:18.473Z,19.17
2022-08-21T22:41:51.368Z,19.16
2022-08-21T22:44:23.725Z,19.19
2022-08-21T22:46:59.158Z,19.26
2022-08-21T22:49:38.593Z,19.29
2022-08-21T22:52:22.541Z,19.21
2022-08-21T22:54:54.037Z,19.20
2022-08-21T22:57:28.659Z,19.16
2022-08-21T23:00:02.649Z,19.13
2022-08-21T23:02:41.050Z,19.13
2022-08-21T23:05:24.699Z,19.16
2022-08-21T23:07:56.569Z,19.04
2022-08-21T23:10:32.913Z,19.05
2022-08-21T23:13:09.305Z,19.10
2022-08-21T23:16:03.526Z,19.09
2022-08-21T23:18:45.454Z,19.08
2022-08-21T23:21:25.190Z,19.23
2022-08-21T23:24:19.495Z,19.13
2022-08-21T23:26:58.241Z,19.07
2022-08-21T23:29:38.626Z,18.99
2022-08-21T23:32:25.124Z,19.03
2022-08-21T23:35:12.845Z,19.05
2022-08-21T23:37:51.423Z,19.07
2022-08-21T23:40:37.192Z,19.02
2022-08-21T23:43:24.600Z,19.05
2022-08-21T23:46:08.825Z,19.07
2022-08-21T23:48:49.270Z,19.05
2022-08-21T23:54:26.597Z,19.01
2022-08-21T23:57:10.593Z,18.99
2022-08-21T23:59:49.534Z,18.98
